KHYI Airport Information

Runway Information
Runway 08 Length 6330 ft width 100 ft
Elevation 588 ft Threshold 0 ft Heading 88
Runway 26 Length 6330 ft Width 100 ft
Elevation 580 ft Threshold 0 ft Heading 268
Runway 13 Length 5603 ft width 150 ft
Elevation 593 ft Threshold 0 ft Heading 133
Runway 31 Length 5603 ft Width 150 ft
Elevation 574 ft Threshold 0 ft Heading 313
Runway 17 Length 5213 ft width 100 ft
Elevation 594 ft Threshold 0 ft Heading 178
Runway 35 Length 5213 ft Width 100 ft
Elevation 574 ft Threshold 0 ft Heading 358
Airport Frequencies
Type A/D Name AUSTIN APP Frequency 119 MHZ
Type AWOS Name AWOS 3 Frequency 120.825 MHZ
Type CLD Name CLNC DEL Frequency 121.35 MHZ
Type UNIC Name CTAF/UNICO Frequency 123.05 MHZ
Airport Navaids
Airport Weather Information & NOTAM
ADDS - METARS form results

(0216 UTC 16 January 2021)
Data provider http://aviationweather.gov/metar/data/
 
METAR text: KHYI 160156Z AUTO 27009KT 10SM CLR 08/M09 A3014 RMK AO2 SLP207 T00781094
Conditions at: KHYI (SAN MARCOS , TX, US) observed 0156 UTC 16 January 2021
Temperature: 7.8°C (46°F)
Dewpoint: -9.4°C (15°F) [RH = 28%]
Pressure (altimeter): 30.14 inches Hg (1020.7 mb)
[Sea-level pressure: 1020.7 mb]
Winds: from the W (270 degrees) at 10 MPH (9 knots; 4.6 m/s)
Visibility: 10 or more miles (16+ km)
Ceiling: at least 12,000 feet AGL
Clouds: sky clear below 12,000 feet AGL
Weather: automated observation with no human augmentation;
there may or may not be significant weather present at this time